INFORMACIÓN METAR y TAF
METAR FOR ENVA
ADDS - METARS form results

(2346 UTC 15 January 2021)
Data provider http://aviationweather.gov/metar/data/
 
METAR text: ENVA 152320Z 09004KT 9999 OVC038 M06/M08 Q1028 RMK WIND 670FT VRB02KT
Conditions at: ENVA (TRONDHEIM/VAERNE, NO) observed 2320 UTC 15 January 2021
Temperature: -6.0°C (21°F)
Dewpoint: -8.0°C (18°F) [RH = 86%]
Pressure (altimeter): 30.35 inches Hg (1028.0 mb)
Winds: from the E (90 degrees) at 5 MPH (4 knots; 2.1 m/s)
Visibility: 6 or more miles (10+ km)
Ceiling: 3800 feet AGL
Clouds: overcast cloud deck at 3800 feet AGL
Weather: no significant weather observed at this time

METAR text: ENVA 152250Z 09004KT 9999 OVC043 M06/M08 Q1028 RMK WIND 670FT 11003KT
Conditions at: ENVA (TRONDHEIM/VAERNE, NO) observed 2250 UTC 15 January 2021
Temperature: -6.0°C (21°F)
Dewpoint: -8.0°C (18°F) [RH = 86%]
Pressure (altimeter): 30.35 inches Hg (1028.0 mb)
Winds: from the E (90 degrees) at 5 MPH (4 knots; 2.1 m/s)
Visibility: 6 or more miles (10+ km)
Ceiling: 4300 feet AGL
Clouds: overcast cloud deck at 4300 feet AGL
Weather: no significant weather observed at this time

Forecast for: ENVA (TRONDHEIM/VAERNE, NO)
Text: TAF ENVA 1518/1618 12008KT 9999 SCT025
Forecast period: 1800 UTC 15 January 2021 to 1800 UTC 16 January 2021
Forecast type: FROM: standard forecast or significant change
Winds: from the ESE (120 degrees) at 9 MPH (8 knots; 4.1 m/s)
Visibility: 6 or more miles (10+ km)
Ceiling: at least 12,000 feet AGL
Clouds: scattered clouds at 2500 feet AGL
Weather: no significant weather forecast for this period

 MAPA DE AEROPUERTO

 INFORMACIÓN DE PISTA
Pista 09 Longitud 9052 ft Ancho 148 ft
Elevación 17 ft Umbral desplazado 830 ft Rumbo de pista 90
Pista 27 Longitud 9052 ft Ancho 148 ft
Elevación 56 ft Umbral desplazado 459 ft Rumbo de pista 270
Pista 13 Longitud 4771 ft Ancho 118 ft
Elevación 30 ft Umbral desplazado 412 ft Rumbo de pista 134
Pista 31 Longitud 4771 ft Ancho 118 ft
Elevación 54 ft Umbral desplazado 962 ft Rumbo de pista 314
Pista 14 Longitud 3117 ft Ancho 118 ft
Elevación 30 ft Umbral desplazado 0 ft Rumbo de pista 134
Pista 32 Longitud 3117 ft Ancho 118 ft
Elevación 54 ft Umbral desplazado 0 ft Rumbo de pista 314

 FRECUANCIAS DEL AEROPUERTO
Tipo APP Nombre APP Frecuencia 118.6 MHZ
Tipo ATIS Nombre ATIS Frecuencia 127.55 MHZ
Tipo GND Nombre Værnes gro Frecuencia 121.6 MHZ
Tipo TWR Nombre TWR Frecuencia 119.4 MHZ

 RADIO AYUDAS DEL AEROPUERTO
Tipo NDB Nombre Flornes Frecuencia 380 KHZ
Tipo NDB Nombre Grakallen Frecuencia 358 KHZ
Tipo VOR-DME Nombre Trondheim Frecuencia 112500 KHZ
Tipo TACAN Nombre Vaernes Frecuencia 109600 KHZ



Powered by Virtual Airlines Manager [v2.6.2]